createdAt,value
2018-05-02T00:00:39.082Z,68.10
2018-05-02T00:03:06.543Z,68.54
2018-05-02T00:05:34.019Z,67.24
2018-05-02T00:08:01.482Z,67.13
2018-05-02T00:10:28.990Z,66.41
2018-05-02T00:12:56.450Z,65.65
2018-05-02T00:15:23.927Z,66.27
2018-05-02T00:17:51.379Z,65.19
2018-05-02T00:20:18.859Z,64.92
2018-05-02T00:22:46.333Z,64.64
2018-05-02T00:25:13.998Z,64.46
2018-05-02T00:27:41.451Z,63.30
2018-05-02T00:30:08.933Z,63.63
2018-05-02T00:32:36.391Z,63.97
2018-05-02T00:35:03.846Z,63.22
2018-05-02T00:37:32.165Z,63.42
2018-05-02T00:39:59.621Z,63.61
2018-05-02T00:42:27.101Z,63.42
2018-05-02T00:44:54.563Z,62.71
2018-05-02T00:47:22.046Z,63.74
2018-05-02T00:49:49.512Z,63.44
2018-05-02T00:52:16.994Z,63.03
2018-05-02T00:54:44.445Z,63.25
2018-05-02T00:57:11.930Z,63.72
2018-05-02T00:59:39.381Z,63.70
2018-05-02T01:02:06.867Z,63.85
2018-05-02T01:04:34.322Z,63.72
2018-05-02T01:07:01.808Z,64.15
2018-05-02T01:09:29.279Z,64.86
2018-05-02T01:11:56.755Z,65.07
2018-05-02T01:14:24.212Z,65.29
2018-05-02T01:16:51.690Z,64.89
2018-05-02T01:19:19.147Z,64.63
2018-05-02T01:21:46.635Z,64.57
2018-05-02T01:24:14.219Z,63.79
2018-05-02T01:26:41.693Z,64.35
2018-05-02T01:29:09.148Z,64.65
2018-05-02T01:31:36.626Z,64.70
2018-05-02T01:34:04.083Z,63.95
2018-05-02T01:36:31.559Z,64.54
2018-05-02T01:38:59.013Z,64.56
2018-05-02T01:41:26.503Z,64.81
2018-05-02T01:43:53.962Z,64.93
2018-05-02T01:46:21.455Z,62.63
2018-05-02T01:49:00.793Z,63.26
2018-05-02T01:51:28.271Z,63.29
2018-05-02T01:53:55.732Z,62.49
2018-05-02T01:56:23.219Z,63.16
2018-05-02T01:58:50.681Z,62.97
2018-05-02T02:01:18.170Z,62.81
2018-05-02T02:03:45.618Z,61.97
2018-05-02T02:06:13.097Z,62.60
2018-05-02T02:08:40.554Z,63.02
2018-05-02T02:11:08.032Z,63.74
2018-05-02T02:13:35.488Z,63.30
2018-05-02T02:16:02.966Z,63.11
2018-05-02T02:18:30.419Z,63.76
2018-05-02T02:20:57.902Z,63.80
2018-05-02T02:23:25.383Z,63.18
2018-05-02T02:25:52.854Z,63.48
2018-05-02T02:28:20.311Z,63.31
2018-05-02T02:30:47.781Z,63.13
2018-05-02T02:33:15.263Z,63.54
2018-05-02T02:35:42.783Z,63.74
2018-05-02T02:38:10.243Z,64.03
2018-05-02T02:40:37.724Z,64.04
2018-05-02T02:43:05.178Z,64.47
2018-05-02T02:45:32.667Z,65.27
2018-05-02T02:48:00.194Z,65.48
2018-05-02T02:50:27.655Z,66.80
2018-05-02T02:52:55.134Z,66.68
2018-05-02T02:55:22.624Z,67.09
2018-05-02T02:57:50.094Z,67.52
2018-05-02T03:00:17.567Z,67.96
2018-05-02T03:02:45.055Z,67.35
2018-05-02T03:05:12.528Z,67.81
2018-05-02T03:07:40.991Z,67.40
2018-05-02T03:10:08.459Z,67.03
2018-05-02T03:12:35.938Z,66.23
2018-05-02T03:15:03.395Z,66.39
2018-05-02T03:17:30.875Z,65.51
2018-05-02T03:19:58.330Z,65.39
2018-05-02T03:22:25.810Z,64.46
2018-05-02T03:24:53.266Z,64.45
2018-05-02T03:27:20.746Z,65.00
2018-05-02T03:29:48.227Z,64.58
2018-05-02T03:32:15.798Z,63.72
2018-05-02T03:34:43.264Z,64.29
2018-05-02T03:37:10.743Z,64.53
2018-05-02T03:39:38.202Z,64.07
2018-05-02T03:42:05.666Z,63.38
2018-05-02T03:44:33.154Z,63.43
2018-05-02T03:47:00.663Z,63.10
2018-05-02T03:49:28.114Z,63.14
2018-05-02T03:51:55.575Z,63.56
2018-05-02T03:54:23.054Z,63.73
2018-05-02T03:56:50.540Z,64.18
2018-05-02T03:59:19.055Z,64.41
2018-05-02T04:01:58.390Z,63.92
2018-05-02T04:04:37.635Z,63.91
2018-05-02T04:07:14.843Z,63.82
2018-05-02T04:09:42.338Z,64.54
2018-05-02T04:12:12.352Z,63.89
2018-05-02T04:14:39.830Z,64.22
2018-05-02T04:17:07.322Z,64.50
2018-05-02T04:19:34.803Z,63.81
2018-05-02T04:22:02.269Z,63.73
2018-05-02T04:24:29.778Z,63.77
2018-05-02T04:26:57.238Z,63.70
2018-05-02T04:29:24.715Z,63.54
2018-05-02T04:31:52.170Z,63.23
2018-05-02T04:34:19.651Z,63.83
2018-05-02T04:36:47.149Z,63.85
2018-05-02T04:39:14.652Z,64.15
2018-05-02T04:41:42.115Z,64.79
2018-05-02T04:44:09.594Z,64.31
2018-05-02T04:46:37.058Z,64.79
2018-05-02T04:49:04.562Z,64.03
2018-05-02T04:51:32.031Z,63.94
2018-05-02T04:53:59.518Z,64.21
2018-05-02T04:56:27.021Z,64.45
2018-05-02T04:58:54.488Z,63.16
2018-05-02T05:01:21.981Z,62.36
2018-05-02T05:03:49.493Z,62.08
2018-05-02T05:06:16.978Z,62.55
2018-05-02T05:08:44.435Z,62.38
2018-05-02T05:11:11.919Z,62.60
2018-05-02T05:13:39.407Z,62.10
2018-05-02T05:16:06.881Z,62.44
2018-05-02T05:18:34.338Z,62.68
2018-05-02T05:21:01.814Z,62.18
2018-05-02T05:23:29.309Z,62.00
2018-05-02T05:25:56.806Z,61.16
2018-05-02T05:28:24.271Z,60.94
2018-05-02T05:30:51.794Z,60.87
2018-05-02T05:33:19.280Z,60.47
2018-05-02T05:35:47.761Z,60.33
2018-05-02T05:38:15.311Z,60.60
2018-05-02T05:40:42.780Z,59.78
2018-05-02T05:43:10.259Z,58.48
2018-05-02T05:45:37.714Z,57.75
2018-05-02T05:48:05.195Z,58.24
2018-05-02T05:50:32.660Z,58.56
2018-05-02T05:53:00.219Z,57.05
2018-05-02T05:55:27.670Z,56.68
2018-05-02T05:57:55.160Z,56.21
2018-05-02T06:00:22.619Z,55.92
2018-05-02T06:02:50.098Z,56.12
2018-05-02T06:05:17.559Z,55.68
2018-05-02T06:07:45.040Z,55.67
2018-05-02T06:10:12.503Z,55.67
2018-05-02T06:12:40.046Z,55.32
2018-05-02T06:15:07.471Z,55.03
2018-05-02T06:17:34.955Z,54.76
2018-05-02T06:20:02.419Z,55.12
2018-05-02T06:22:29.909Z,54.10
2018-05-02T06:24:57.378Z,53.39
2018-05-02T06:27:24.858Z,53.97
2018-05-02T06:29:52.326Z,54.02
2018-05-02T06:32:19.810Z,54.38
2018-05-02T06:34:47.261Z,52.77
2018-05-02T06:37:14.783Z,53.86
2018-05-02T06:39:42.247Z,54.34
2018-05-02T06:42:09.726Z,53.58
2018-05-02T06:44:38.277Z,52.85
2018-05-02T06:47:05.793Z,52.08
2018-05-02T06:49:33.283Z,51.88
2018-05-02T06:52:00.766Z,53.31
2018-05-02T06:54:28.246Z,52.30
2018-05-02T06:56:55.710Z,51.90
2018-05-02T06:59:23.220Z,52.13
2018-05-02T07:01:50.710Z,52.08
2018-05-02T07:04:18.196Z,49.62
2018-05-02T07:06:45.660Z,50.24
2018-05-02T07:09:13.139Z,49.41
2018-05-02T07:11:40.598Z,48.86
2018-05-02T07:14:08.079Z,49.50
2018-05-02T07:16:35.543Z,48.88
2018-05-02T07:19:03.115Z,49.95
2018-05-02T07:21:30.570Z,47.73
2018-05-02T07:23:58.060Z,47.92
2018-05-02T07:26:25.531Z,47.84
2018-05-02T07:28:53.043Z,47.38
2018-05-02T07:31:20.502Z,47.63
2018-05-02T07:33:48.894Z,47.76
2018-05-02T07:36:16.349Z,48.41
2018-05-02T07:38:43.864Z,47.76
2018-05-02T07:41:11.321Z,47.71
2018-05-02T07:43:38.808Z,48.08
2018-05-02T07:46:06.285Z,47.08
2018-05-02T07:48:33.776Z,46.37
2018-05-02T07:51:01.258Z,46.56
2018-05-02T07:53:28.731Z,46.62
2018-05-02T07:55:56.251Z,46.31
2018-05-02T07:58:23.716Z,47.36
2018-05-02T08:00:51.203Z,46.94
2018-05-02T08:03:18.666Z,47.68
2018-05-02T08:05:46.159Z,46.80
2018-05-02T08:08:13.648Z,46.23
2018-05-02T08:10:41.230Z,47.69
2018-05-02T08:13:08.713Z,48.72
2018-05-02T08:15:36.204Z,47.28
2018-05-02T08:18:03.695Z,47.40
2018-05-02T08:20:31.191Z,47.89
2018-05-02T08:22:58.654Z,47.34
2018-05-02T08:25:26.135Z,46.44
2018-05-02T08:27:53.604Z,46.86
2018-05-02T08:30:21.096Z,46.22
2018-05-02T08:32:48.644Z,46.45
2018-05-02T08:35:16.168Z,46.32
2018-05-02T08:37:43.626Z,47.04
2018-05-02T08:40:11.101Z,47.82
2018-05-02T08:42:38.676Z,46.22
2018-05-02T08:45:06.158Z,47.36
2018-05-02T08:47:33.639Z,45.74
2018-05-02T08:50:01.213Z,46.00
2018-05-02T08:52:28.630Z,45.57
2018-05-02T08:54:56.117Z,44.92
2018-05-02T08:57:23.628Z,43.70
2018-05-02T08:59:51.099Z,43.35
2018-05-02T09:02:18.638Z,43.34
2018-05-02T09:04:46.093Z,43.18
2018-05-02T09:07:13.596Z,42.37
2018-05-02T09:09:41.084Z,42.79
2018-05-02T09:12:08.579Z,44.91
2018-05-02T09:14:36.089Z,42.38
2018-05-02T09:17:03.574Z,42.92
2018-05-02T09:19:31.058Z,41.31
2018-05-02T09:21:58.542Z,41.27
2018-05-02T09:24:26.008Z,40.71
2018-05-02T09:26:53.507Z,41.66
2018-05-02T09:29:21.019Z,41.05
2018-05-02T09:31:48.522Z,41.36
2018-05-02T09:34:16.171Z,40.80
2018-05-02T09:36:43.674Z,40.58
2018-05-02T09:39:11.159Z,40.68
2018-05-02T09:41:38.648Z,39.21
2018-05-02T09:44:06.129Z,39.91
2018-05-02T09:46:33.612Z,39.92
2018-05-02T09:49:01.144Z,39.84
2018-05-02T09:51:28.631Z,39.98
2018-05-02T09:53:56.098Z,39.65
2018-05-02T09:56:23.586Z,39.54
2018-05-02T09:58:51.047Z,38.95
2018-05-02T10:01:18.542Z,38.91
2018-05-02T10:03:46.002Z,38.38
2018-05-02T10:06:13.470Z,37.13
2018-05-02T10:08:40.971Z,37.54
2018-05-02T10:11:08.430Z,36.48
2018-05-02T10:13:35.927Z,36.88
2018-05-02T10:16:03.425Z,36.60
2018-05-02T10:18:31.020Z,36.85
2018-05-02T10:20:58.395Z,37.40
2018-05-02T10:23:25.879Z,36.63
2018-05-02T10:25:53.381Z,35.29
2018-05-02T10:28:20.895Z,35.32
2018-05-02T10:30:48.374Z,35.38
2018-05-02T10:33:15.883Z,36.48
2018-05-02T10:35:43.354Z,35.06
2018-05-02T10:38:10.875Z,34.47
2018-05-02T10:40:38.339Z,33.08
2018-05-02T10:43:05.865Z,33.19
2018-05-02T10:45:33.316Z,32.21
2018-05-02T10:48:00.844Z,32.26
2018-05-02T10:50:28.332Z,29.92
2018-05-02T10:52:55.813Z,27.31
2018-05-02T10:55:23.325Z,27.31
2018-05-02T10:57:50.811Z,26.97
2018-05-02T11:00:18.334Z,28.21
2018-05-02T11:02:45.987Z,30.41
2018-05-02T11:05:13.451Z,31.86
2018-05-02T11:07:40.911Z,32.19
2018-05-02T11:10:08.393Z,29.49
2018-05-02T11:12:36.148Z,28.01
2018-05-02T11:15:03.642Z,25.42
2018-05-02T11:17:31.106Z,23.53
2018-05-02T11:19:58.617Z,23.03
2018-05-02T11:22:26.078Z,23.17
2018-05-02T11:24:53.563Z,24.06
2018-05-02T11:27:21.024Z,25.39
2018-05-02T11:29:48.507Z,23.27
2018-05-02T11:32:15.974Z,23.29
2018-05-02T11:34:43.477Z,23.51
2018-05-02T11:37:10.951Z,26.62
2018-05-02T11:39:38.429Z,25.13
2018-05-02T11:42:05.890Z,25.71
2018-05-02T11:44:33.382Z,25.42
2018-05-02T11:47:00.858Z,24.97
2018-05-02T11:49:28.367Z,26.74
2018-05-02T11:51:55.845Z,24.68
2018-05-02T11:54:23.328Z,23.15
2018-05-02T11:56:50.799Z,24.72
2018-05-02T11:59:18.289Z,26.81
2018-05-02T12:01:45.756Z,26.46
2018-05-02T12:04:13.239Z,28.54
2018-05-02T12:06:40.700Z,25.58
2018-05-02T12:09:08.180Z,23.40
2018-05-02T12:11:35.642Z,24.00
2018-05-02T12:14:03.146Z,20.89
2018-05-02T12:16:30.611Z,18.22
2018-05-02T12:18:58.105Z,18.09
2018-05-02T12:21:25.582Z,19.71
2018-05-02T12:23:53.074Z,18.99
2018-05-02T12:26:20.533Z,21.15
2018-05-02T12:28:48.022Z,22.07
2018-05-02T12:31:16.093Z,22.73
2018-05-02T12:33:43.555Z,25.66
2018-05-02T12:36:11.079Z,25.78
2018-05-02T12:38:38.545Z,26.50
2018-05-02T12:41:06.030Z,26.31
2018-05-02T12:43:33.505Z,26.61
2018-05-02T12:46:01.001Z,26.99
2018-05-02T12:48:28.474Z,26.91
2018-05-02T12:50:55.968Z,26.89
2018-05-02T12:53:23.438Z,23.14
2018-05-02T12:55:50.922Z,21.34
2018-05-02T12:58:18.383Z,19.82
2018-05-02T13:00:45.867Z,19.57
2018-05-02T13:03:13.321Z,18.75
2018-05-02T13:05:40.806Z,20.04
2018-05-02T13:08:08.338Z,20.64
2018-05-02T13:10:35.766Z,20.59
2018-05-02T13:13:03.238Z,19.88
2018-05-02T13:15:30.761Z,16.29
2018-05-02T13:17:58.226Z,15.02
2018-05-02T13:20:25.752Z,16.19
2018-05-02T13:22:56.009Z,16.55
2018-05-02T13:25:23.635Z,18.25
2018-05-02T13:27:51.102Z,19.03
2018-05-02T13:30:18.601Z,16.13
2018-05-02T13:32:46.084Z,17.24
2018-05-02T13:35:13.562Z,17.04
2018-05-02T13:37:41.535Z,19.57
2018-05-02T13:40:09.491Z,15.41
2018-05-02T13:42:37.093Z,15.35
2018-05-02T13:45:04.578Z,14.94
2018-05-02T13:47:32.058Z,14.85
2018-05-02T13:49:59.531Z,15.64
2018-05-02T13:52:27.024Z,16.39
2018-05-02T13:54:54.512Z,17.77
2018-05-02T13:57:22.000Z,17.65
2018-05-02T13:59:49.494Z,17.35
2018-05-02T14:02:16.981Z,18.51
2018-05-02T14:04:44.438Z,19.18
2018-05-02T14:07:11.971Z,18.34
2018-05-02T14:09:39.454Z,17.86
2018-05-02T14:12:06.944Z,19.58
2018-05-02T14:14:34.413Z,19.06
2018-05-02T14:17:01.918Z,18.10
2018-05-02T14:19:29.392Z,18.23
2018-05-02T14:21:56.899Z,18.96
2018-05-02T14:24:24.438Z,19.92
2018-05-02T14:26:52.012Z,19.75
2018-05-02T14:29:19.474Z,19.03
2018-05-02T14:31:46.978Z,19.07
2018-05-02T14:34:14.513Z,18.44
2018-05-02T14:36:42.035Z,18.07
2018-05-02T14:39:09.511Z,18.24
2018-05-02T14:41:37.038Z,17.23
2018-05-02T14:44:04.627Z,19.69
2018-05-02T14:46:32.108Z,20.18
2018-05-02T14:48:59.668Z,19.87
2018-05-02T14:51:27.214Z,19.67
2018-05-02T14:53:54.714Z,20.53
2018-05-02T14:56:22.337Z,21.14
2018-05-02T14:58:49.858Z,21.22
2018-05-02T15:01:17.322Z,22.37
2018-05-02T15:03:44.826Z,23.19
2018-05-02T15:06:12.363Z,23.75
2018-05-02T15:08:39.855Z,24.01
2018-05-02T15:11:07.341Z,24.89
2018-05-02T15:13:34.823Z,24.67
2018-05-02T15:16:02.292Z,24.28
2018-05-02T15:18:29.874Z,25.47
2018-05-02T15:20:57.373Z,25.76
2018-05-02T15:23:24.893Z,26.09
2018-05-02T15:25:52.363Z,26.04
2018-05-02T15:28:19.843Z,27.96
2018-05-02T15:30:47.367Z,28.41
2018-05-02T15:33:14.923Z,28.74
2018-05-02T15:35:42.411Z,28.22
2018-05-02T15:38:09.895Z,29.58
2018-05-02T15:40:37.494Z,29.72
2018-05-02T15:43:08.426Z,30.72
2018-05-02T15:45:35.947Z,30.40
2018-05-02T15:48:03.512Z,31.67
2018-05-02T15:50:39.517Z,31.25
2018-05-02T15:53:08.250Z,32.56
2018-05-02T15:55:35.834Z,31.99
2018-05-02T15:58:03.592Z,33.32
2018-05-02T16:00:31.244Z,33.70
2018-05-02T16:03:07.458Z,33.96
2018-05-02T16:05:35.254Z,33.47
2018-05-02T16:08:02.826Z,33.86
2018-05-02T16:12:59.645Z,33.52
2018-05-02T16:20:54.905Z,33.96
2018-05-02T16:23:22.495Z,33.89
2018-05-02T16:26:52.940Z,33.85
2018-05-02T16:29:21.443Z,34.11
2018-05-02T16:31:53.719Z,34.73
2018-05-02T16:34:21.274Z,34.30
2018-05-02T16:36:48.901Z,35.15
2018-05-02T16:39:16.591Z,34.93
2018-05-02T16:41:47.566Z,35.69
2018-05-02T16:44:20.840Z,35.90
2018-05-02T16:46:48.399Z,36.04
2018-05-02T16:49:16.060Z,35.73
2018-05-02T16:51:43.649Z,36.10
2018-05-02T16:54:11.181Z,37.20
2018-05-02T16:56:38.797Z,36.20
2018-05-02T16:59:06.520Z,37.50
2018-05-02T17:01:35.394Z,37.49
2018-05-02T17:04:03.138Z,37.00
2018-05-02T17:06:33.291Z,37.96
2018-05-02T17:09:00.871Z,38.48
2018-05-02T17:11:37.659Z,38.12
2018-05-02T17:27:10.464Z,38.32
2018-05-02T17:29:38.470Z,38.16
2018-05-02T17:32:06.077Z,38.27
2018-05-02T17:34:33.654Z,38.77
2018-05-02T17:37:01.461Z,39.58
2018-05-02T17:39:29.493Z,38.88
2018-05-02T17:41:59.190Z,39.64
2018-05-02T17:44:26.860Z,39.79
2018-05-02T17:46:54.382Z,39.76
2018-05-02T17:49:22.749Z,40.35
2018-05-02T17:51:50.314Z,39.68
2018-05-02T17:54:22.699Z,39.78
2018-05-02T17:57:01.470Z,40.16
2018-05-02T17:59:29.044Z,40.26
2018-05-02T18:02:18.717Z,40.22
2018-05-02T18:04:46.312Z,40.40
2018-05-02T18:07:13.911Z,41.00
2018-05-02T18:09:41.509Z,41.37
2018-05-02T18:12:08.983Z,41.32
2018-05-02T18:14:36.688Z,41.28
2018-05-02T18:17:04.471Z,43.41
2018-05-02T18:19:32.011Z,43.54
2018-05-02T18:22:13.695Z,44.17
2018-05-02T18:24:43.431Z,44.64
2018-05-02T18:27:16.120Z,46.05
2018-05-02T18:29:43.663Z,46.35
2018-05-02T18:32:22.379Z,48.34
2018-05-02T18:34:50.729Z,47.90
2018-05-02T18:37:18.433Z,49.08
2018-05-02T18:39:45.935Z,51.39
2018-05-02T18:42:19.164Z,48.39
2018-05-02T18:44:46.691Z,48.78
2018-05-02T18:47:14.306Z,47.97
2018-05-02T18:49:41.893Z,49.82
2018-05-02T18:52:09.491Z,48.11
2018-05-02T18:54:37.080Z,47.98
2018-05-02T18:57:04.621Z,47.16
2018-05-02T18:59:32.660Z,46.91
2018-05-02T19:02:00.593Z,46.98
2018-05-02T19:04:32.177Z,47.13
2018-05-02T19:06:59.855Z,47.61
2018-05-02T19:09:27.374Z,48.41
2018-05-02T19:12:01.017Z,48.82
2018-05-02T19:14:28.612Z,47.87
2018-05-02T19:16:56.292Z,48.21
2018-05-02T21:05:39.948Z,55.48
2018-05-02T21:08:07.466Z,55.58
2018-05-02T21:10:34.934Z,55.67
2018-05-02T21:13:02.434Z,55.63
2018-05-02T21:15:29.896Z,55.43
2018-05-02T21:17:57.391Z,55.62
2018-05-02T21:20:24.850Z,55.63
2018-05-02T21:22:52.310Z,55.81
2018-05-02T21:25:19.791Z,54.25
2018-05-02T21:27:47.265Z,54.74
2018-05-02T21:30:14.822Z,55.33
2018-05-02T21:32:42.282Z,55.84
2018-05-02T21:35:09.776Z,55.93
2018-05-02T21:37:37.232Z,56.30
2018-05-02T21:40:04.706Z,56.32
2018-05-02T21:42:32.163Z,56.82
2018-05-02T21:44:59.642Z,57.03
2018-05-02T21:47:27.098Z,58.13
2018-05-02T21:49:54.583Z,59.91
2018-05-02T21:52:22.061Z,60.40
2018-05-02T21:54:49.539Z,61.25
2018-05-02T21:57:18.046Z,62.82
2018-05-02T21:59:45.588Z,61.35
2018-05-02T22:02:13.019Z,63.28
2018-05-02T22:04:40.498Z,62.74
2018-05-02T22:07:07.958Z,62.54
2018-05-02T22:09:35.435Z,63.50
2018-05-02T22:12:02.894Z,62.92
2018-05-02T22:14:30.370Z,63.05
2018-05-02T22:16:57.826Z,63.29
2018-05-02T22:19:25.310Z,62.69
2018-05-02T22:21:52.774Z,62.43
2018-05-02T22:24:20.254Z,62.73
2018-05-02T22:26:47.714Z,63.37
2018-05-02T22:29:15.201Z,64.08
2018-05-02T22:31:42.659Z,63.70
2018-05-02T22:34:10.150Z,63.99
2018-05-02T22:36:37.862Z,64.13
2018-05-02T22:39:05.350Z,65.06
2018-05-02T22:41:32.811Z,64.65
2018-05-02T22:44:00.270Z,64.41
2018-05-02T22:46:27.767Z,65.81
2018-05-02T22:48:56.162Z,65.39
2018-05-02T22:51:23.662Z,66.87
2018-05-02T22:53:51.113Z,67.09
2018-05-02T22:56:18.594Z,67.78
2018-05-02T22:58:46.076Z,68.30
2018-05-02T23:01:13.558Z,69.14
2018-05-02T23:03:41.019Z,67.71
2018-05-02T23:06:08.527Z,69.77
2018-05-02T23:08:35.992Z,70.55
2018-05-02T23:11:03.505Z,71.89
2018-05-02T23:13:30.986Z,76.22
2018-05-02T23:15:58.474Z,74.88
2018-05-02T23:18:25.986Z,73.54
2018-05-02T23:20:53.445Z,75.68
2018-05-02T23:23:20.906Z,76.66
2018-05-02T23:25:48.410Z,78.30
2018-05-02T23:28:15.867Z,77.98
2018-05-02T23:30:43.345Z,76.49
2018-05-02T23:33:10.983Z,74.17
2018-05-02T23:35:38.569Z,75.30
2018-05-02T23:38:06.047Z,77.44
2018-05-02T23:40:33.543Z,78.34
2018-05-02T23:43:01.030Z,78.55
2018-05-02T23:45:28.522Z,78.72
2018-05-02T23:47:56.098Z,79.08
2018-05-02T23:50:23.507Z,79.77
2018-05-02T23:52:51.002Z,80.78
2018-05-02T23:55:18.509Z,81.74
2018-05-02T23:57:46.019Z,81.43
